createdAt,value
2018-12-07T00:00:24.815Z,14.06
2018-12-07T00:01:00.879Z,14.21
2018-12-07T00:01:36.629Z,14.09
2018-12-07T00:02:12.568Z,14.09
2018-12-07T00:02:48.281Z,13.70
2018-12-07T00:03:23.992Z,14.09
2018-12-07T00:03:59.865Z,14.02
2018-12-07T00:04:35.491Z,13.81
2018-12-07T00:05:11.402Z,14.23
2018-12-07T00:05:47.121Z,14.07
2018-12-07T00:06:22.856Z,13.88
2018-12-07T00:06:58.641Z,14.25
2018-12-07T00:07:34.570Z,14.12
2018-12-07T00:08:10.665Z,14.59
2018-12-07T00:08:46.269Z,14.00
2018-12-07T00:09:22.181Z,14.62
2018-12-07T00:09:58.171Z,14.19
2018-12-07T00:10:34.006Z,13.90
2018-12-07T00:11:10.024Z,14.29
2018-12-07T00:11:46.140Z,14.25
2018-12-07T00:12:21.791Z,13.70
2018-12-07T00:12:57.702Z,14.11
2018-12-07T00:13:33.640Z,14.05
2018-12-07T00:14:09.468Z,14.11
2018-12-07T00:14:45.339Z,14.36
2018-12-07T00:15:21.152Z,13.89
2018-12-07T00:15:56.802Z,14.13
2018-12-07T00:16:32.462Z,14.13
2018-12-07T00:17:08.263Z,13.92
2018-12-07T00:17:43.869Z,14.18
2018-12-07T00:18:19.564Z,14.14
2018-12-07T00:18:55.094Z,14.15
2018-12-07T00:19:30.962Z,14.25
2018-12-07T00:20:08.958Z,14.22
2018-12-07T00:20:44.600Z,14.24
2018-12-07T00:21:20.507Z,14.50
2018-12-07T00:21:56.185Z,14.28
2018-12-07T00:22:32.115Z,14.24
2018-12-07T00:23:09.181Z,14.26
2018-12-07T00:23:45.098Z,14.16
2018-12-07T00:24:20.841Z,14.00
2018-12-07T00:24:56.446Z,14.01
2018-12-07T00:25:31.995Z,14.07
2018-12-07T00:26:07.839Z,14.03
2018-12-07T00:26:43.629Z,13.67
2018-12-07T00:27:19.462Z,13.92
2018-12-07T00:27:55.527Z,14.14
2018-12-07T00:28:31.467Z,14.18
2018-12-07T00:29:07.317Z,14.00
2018-12-07T00:29:43.320Z,13.83
2018-12-07T00:30:18.944Z,14.13
2018-12-07T00:30:54.837Z,13.95
2018-12-07T00:31:31.003Z,13.76
2018-12-07T00:32:06.903Z,13.96
2018-12-07T00:32:42.543Z,13.93
2018-12-07T00:33:18.465Z,14.20
2018-12-07T00:33:54.191Z,13.92
2018-12-07T00:34:29.891Z,13.84
2018-12-07T00:35:06.613Z,13.92
2018-12-07T00:35:42.209Z,13.81
2018-12-07T00:36:17.937Z,13.82
2018-12-07T00:36:53.752Z,13.70
2018-12-07T00:37:29.473Z,13.81
2018-12-07T00:38:05.149Z,13.51
2018-12-07T00:38:40.802Z,13.66
2018-12-07T00:39:16.602Z,13.68
2018-12-07T00:39:52.278Z,13.57
2018-12-07T00:40:27.999Z,13.63
2018-12-07T00:41:03.739Z,13.75
2018-12-07T00:41:39.507Z,13.58
2018-12-07T00:42:15.219Z,13.47
2018-12-07T00:42:50.829Z,13.46
2018-12-07T00:43:26.360Z,13.59
2018-12-07T00:44:02.307Z,13.60
2018-12-07T00:44:37.992Z,13.61
2018-12-07T00:45:13.870Z,13.66
2018-12-07T00:45:49.785Z,13.47
2018-12-07T00:46:25.500Z,13.64
2018-12-07T00:47:01.244Z,13.39
2018-12-07T00:47:37.175Z,13.44
2018-12-07T00:48:13.071Z,13.50
2018-12-07T00:48:48.696Z,13.49
2018-12-07T00:49:24.439Z,13.32
2018-12-07T00:50:00.133Z,13.41
2018-12-07T00:50:35.705Z,13.45
2018-12-07T00:51:11.428Z,13.36
2018-12-07T00:51:47.358Z,13.29
2018-12-07T00:52:23.231Z,13.35
2018-12-07T00:52:59.700Z,13.35
2018-12-07T00:53:35.570Z,13.42
2018-12-07T00:54:11.415Z,13.28
2018-12-07T00:54:46.943Z,13.33
2018-12-07T00:55:32.577Z,13.26
2018-12-07T00:56:08.288Z,13.13
2018-12-07T00:56:43.999Z,13.15
2018-12-07T00:57:19.626Z,13.41
2018-12-07T00:57:55.298Z,13.31
2018-12-07T00:58:31.255Z,13.26
2018-12-07T00:59:06.859Z,13.35
2018-12-07T00:59:42.651Z,13.37
2018-12-07T01:00:18.418Z,13.45
2018-12-07T01:00:54.198Z,13.41
2018-12-07T01:01:30.071Z,13.30
2018-12-07T01:02:05.936Z,13.35
2018-12-07T01:02:41.706Z,13.36
2018-12-07T01:03:17.417Z,13.76
2018-12-07T01:03:53.348Z,13.37
2018-12-07T01:04:29.168Z,13.42
2018-12-07T01:05:04.936Z,13.46
2018-12-07T01:05:40.707Z,13.32
2018-12-07T01:06:16.438Z,13.31
2018-12-07T01:06:52.092Z,13.47
2018-12-07T01:07:27.794Z,13.49
2018-12-07T01:08:03.445Z,13.41
2018-12-07T01:08:39.181Z,13.37
2018-12-07T01:09:15.248Z,13.43
2018-12-07T01:09:51.207Z,13.49
2018-12-07T01:10:26.694Z,13.57
2018-12-07T01:11:02.760Z,13.62
2018-12-07T01:11:39.092Z,13.63
2018-12-07T01:12:15.166Z,13.67
2018-12-07T01:12:50.890Z,13.61
2018-12-07T01:13:26.594Z,13.56
2018-12-07T01:14:02.193Z,13.80
2018-12-07T01:14:38.002Z,13.70
2018-12-07T01:15:13.587Z,13.78
2018-12-07T01:15:49.406Z,13.63
2018-12-07T01:16:25.083Z,13.81
2018-12-07T01:17:01.018Z,13.84
2018-12-07T01:17:36.611Z,14.02
2018-12-07T01:18:12.422Z,13.93
2018-12-07T01:18:48.113Z,13.87
2018-12-07T01:19:23.997Z,13.79
2018-12-07T01:19:59.838Z,13.83
2018-12-07T01:20:35.560Z,14.04
2018-12-07T01:21:11.085Z,14.06
2018-12-07T01:21:46.997Z,14.00
2018-12-07T01:22:22.691Z,14.07
2018-12-07T01:22:58.583Z,13.95
2018-12-07T01:23:34.357Z,14.12
2018-12-07T01:24:10.133Z,13.99
2018-12-07T01:24:45.831Z,14.10
2018-12-07T01:25:21.779Z,14.01
2018-12-07T01:25:57.280Z,14.10
2018-12-07T01:26:33.149Z,14.16
2018-12-07T01:27:09.144Z,14.01
2018-12-07T01:27:44.867Z,14.04
2018-12-07T01:28:20.514Z,14.20
2018-12-07T01:28:56.238Z,14.17
2018-12-07T01:29:31.771Z,14.15
2018-12-07T01:30:07.821Z,14.04
2018-12-07T01:30:43.650Z,14.15
2018-12-07T01:31:19.406Z,14.16
2018-12-07T01:31:55.247Z,14.20
2018-12-07T01:32:31.322Z,14.32
2018-12-07T01:33:13.864Z,14.16
2018-12-07T01:33:49.362Z,14.19
2018-12-07T01:34:25.227Z,14.25
2018-12-07T01:35:01.882Z,14.16
2018-12-07T01:35:37.949Z,14.26
2018-12-07T01:36:13.792Z,14.27
2018-12-07T01:36:49.730Z,14.27
2018-12-07T01:37:25.388Z,14.16
2018-12-07T01:38:01.184Z,14.28
2018-12-07T01:38:36.871Z,14.26
2018-12-07T01:39:12.562Z,14.25
2018-12-07T01:39:48.553Z,13.98
2018-12-07T01:40:24.320Z,14.16
2018-12-07T01:41:00.206Z,14.29
2018-12-07T01:41:36.121Z,14.46
2018-12-07T01:42:11.985Z,14.27
2018-12-07T01:42:48.495Z,14.34
2018-12-07T01:43:24.202Z,14.03
2018-12-07T01:43:59.674Z,14.51
2018-12-07T01:44:35.525Z,14.19
2018-12-07T01:45:11.363Z,14.20
2018-12-07T01:45:47.694Z,14.36
2018-12-07T01:46:23.394Z,14.40
2018-12-07T01:46:59.003Z,14.42
2018-12-07T01:47:38.637Z,14.19
2018-12-07T01:48:14.482Z,14.31
2018-12-07T01:48:50.236Z,14.28
2018-12-07T01:49:25.778Z,14.27
2018-12-07T01:50:01.531Z,14.37
2018-12-07T01:50:37.377Z,14.30
2018-12-07T01:51:13.200Z,14.24
2018-12-07T01:51:48.792Z,14.26
2018-12-07T01:52:24.636Z,14.61
2018-12-07T01:53:00.313Z,14.41
2018-12-07T01:53:35.938Z,14.28
2018-12-07T01:54:11.617Z,14.39
2018-12-07T01:54:47.438Z,14.49
2018-12-07T01:55:23.179Z,14.30
2018-12-07T01:55:58.799Z,14.30
2018-12-07T01:56:34.654Z,14.50
2018-12-07T01:57:10.749Z,14.35
2018-12-07T01:57:46.303Z,14.40
2018-12-07T01:58:21.995Z,14.45
2018-12-07T01:58:58.056Z,14.20
2018-12-07T01:59:33.650Z,14.28
2018-12-07T02:00:09.663Z,14.22
2018-12-07T02:00:45.332Z,14.30
2018-12-07T02:01:20.980Z,14.24
2018-12-07T02:01:56.825Z,14.15
2018-12-07T02:02:32.601Z,14.24
2018-12-07T02:03:08.496Z,14.26
2018-12-07T02:03:44.220Z,14.55
2018-12-07T02:04:20.018Z,14.16
2018-12-07T02:04:55.795Z,14.31
2018-12-07T02:05:31.179Z,14.32
2018-12-07T02:06:07.179Z,14.38
2018-12-07T02:06:42.955Z,14.57
2018-12-07T02:07:28.590Z,14.36
2018-12-07T02:08:04.214Z,14.33
2018-12-07T02:08:39.971Z,14.38
2018-12-07T02:09:15.817Z,14.39
2018-12-07T02:09:51.553Z,14.19
2018-12-07T02:10:27.408Z,14.19
2018-12-07T02:11:03.423Z,14.24
2018-12-07T02:11:39.109Z,14.26
2018-12-07T02:12:14.927Z,14.20
2018-12-07T02:12:50.602Z,13.99
2018-12-07T02:13:26.276Z,14.15
2018-12-07T02:14:01.991Z,13.97
2018-12-07T02:14:37.694Z,14.29
2018-12-07T02:15:13.499Z,14.55
2018-12-07T02:15:48.785Z,14.61
2018-12-07T02:16:24.774Z,14.50
2018-12-07T02:17:00.504Z,14.49
2018-12-07T02:17:36.368Z,14.37
2018-12-07T02:18:12.160Z,14.21
2018-12-07T02:18:47.875Z,14.16
2018-12-07T02:19:23.841Z,14.13
2018-12-07T02:19:59.545Z,14.01
2018-12-07T02:20:35.291Z,14.29
2018-12-07T02:21:10.890Z,14.32
2018-12-07T02:21:46.474Z,14.31
2018-12-07T02:22:22.398Z,14.33
2018-12-07T02:22:58.052Z,14.43
2018-12-07T02:23:34.511Z,14.23
2018-12-07T02:24:10.283Z,14.35
2018-12-07T02:24:46.110Z,13.99
2018-12-07T02:25:21.756Z,14.62
2018-12-07T02:25:57.570Z,14.59
2018-12-07T02:26:33.024Z,14.22
2018-12-07T02:27:08.624Z,14.30
2018-12-07T02:27:49.105Z,14.13
2018-12-07T02:28:24.905Z,14.63
2018-12-07T02:29:00.704Z,14.63
2018-12-07T02:29:36.564Z,14.23
2018-12-07T02:30:12.480Z,14.62
2018-12-07T02:30:48.253Z,14.24
2018-12-07T02:31:23.902Z,14.43
2018-12-07T02:31:59.716Z,14.72
2018-12-07T02:32:35.460Z,14.42
2018-12-07T02:33:11.094Z,14.31
2018-12-07T02:33:46.727Z,14.28
2018-12-07T02:34:22.588Z,14.21
2018-12-07T02:34:58.272Z,14.56
2018-12-07T02:35:34.112Z,13.90
2018-12-07T02:36:09.913Z,13.97
2018-12-07T02:36:45.807Z,14.04
2018-12-07T02:37:21.377Z,14.33
2018-12-07T02:37:57.111Z,14.29
2018-12-07T02:38:32.886Z,14.56
2018-12-07T02:39:09.605Z,14.33
2018-12-07T02:39:45.231Z,14.43
2018-12-07T02:40:21.005Z,14.55
2018-12-07T02:40:56.827Z,14.12
2018-12-07T02:41:32.727Z,14.33
2018-12-07T02:42:08.597Z,13.96
2018-12-07T02:42:44.572Z,14.25
2018-12-07T02:43:20.300Z,14.00
2018-12-07T02:43:55.910Z,14.19
2018-12-07T02:44:31.496Z,14.40
2018-12-07T02:45:07.501Z,13.91
2018-12-07T02:45:43.213Z,14.32
2018-12-07T02:46:19.057Z,14.73
2018-12-07T02:46:54.726Z,14.36
2018-12-07T02:47:30.228Z,14.32
2018-12-07T02:48:06.263Z,14.19
2018-12-07T02:48:42.346Z,14.49
2018-12-07T02:49:18.091Z,14.49
2018-12-07T02:49:54.074Z,14.48
2018-12-07T02:50:29.698Z,14.72
2018-12-07T02:51:05.467Z,14.52
2018-12-07T02:51:41.216Z,14.44
2018-12-07T02:52:16.880Z,14.73
2018-12-07T02:52:52.511Z,14.29
2018-12-07T02:53:28.422Z,14.65
2018-12-07T02:54:04.128Z,14.26
2018-12-07T02:54:39.761Z,13.98
2018-12-07T02:55:15.363Z,14.29
2018-12-07T02:55:51.098Z,14.39
2018-12-07T02:56:26.928Z,14.36
2018-12-07T02:57:02.759Z,14.30
2018-12-07T02:57:38.255Z,14.58
2018-12-07T02:58:14.031Z,14.22
2018-12-07T02:58:50.043Z,14.72
2018-12-07T02:59:25.742Z,14.41
2018-12-07T03:00:01.740Z,14.41
2018-12-07T03:00:37.376Z,14.75
2018-12-07T03:01:13.075Z,14.33
2018-12-07T03:01:48.776Z,14.25
2018-12-07T03:02:24.848Z,14.34
2018-12-07T03:03:00.651Z,14.55
2018-12-07T03:03:36.150Z,14.37
2018-12-07T03:04:11.839Z,14.94
2018-12-07T03:04:47.676Z,14.51
2018-12-07T03:05:23.607Z,14.37
2018-12-07T03:05:59.689Z,14.62
2018-12-07T03:06:35.446Z,14.63
2018-12-07T03:07:11.094Z,14.04
2018-12-07T03:07:46.777Z,14.22
2018-12-07T03:08:22.732Z,14.58
2018-12-07T03:08:58.690Z,14.73
2018-12-07T03:09:34.385Z,14.65
2018-12-07T03:10:10.391Z,14.70
2018-12-07T03:10:46.290Z,14.52
2018-12-07T03:11:22.052Z,14.71
2018-12-07T03:11:57.783Z,14.30
2018-12-07T03:12:33.747Z,14.34
2018-12-07T03:13:09.277Z,14.68
2018-12-07T03:13:44.969Z,14.47
2018-12-07T03:14:20.597Z,14.88
2018-12-07T03:14:56.427Z,14.24
2018-12-07T03:15:32.163Z,14.27
2018-12-07T03:16:08.123Z,14.55
2018-12-07T03:16:44.150Z,14.47
2018-12-07T03:17:19.954Z,14.42
2018-12-07T03:17:55.926Z,14.70
2018-12-07T03:18:33.874Z,14.83
2018-12-07T03:19:09.732Z,14.80
2018-12-07T03:19:45.436Z,14.21
2018-12-07T03:20:21.021Z,14.65
2018-12-07T03:20:56.878Z,14.74
2018-12-07T03:21:32.479Z,14.76
2018-12-07T03:22:08.508Z,14.87
2018-12-07T03:22:44.180Z,14.78
2018-12-07T03:23:19.926Z,14.60
2018-12-07T03:23:55.680Z,14.82
2018-12-07T03:24:31.558Z,14.27
2018-12-07T03:25:08.226Z,14.74
2018-12-07T03:25:43.792Z,14.74
2018-12-07T03:26:19.428Z,14.66
2018-12-07T03:26:55.143Z,14.73
2018-12-07T03:27:30.703Z,14.50
2018-12-07T03:28:06.370Z,14.25
2018-12-07T03:28:41.915Z,14.80
2018-12-07T03:29:17.678Z,14.77
2018-12-07T03:29:53.313Z,14.67
2018-12-07T03:30:28.878Z,14.55
2018-12-07T03:31:04.321Z,14.40
2018-12-07T03:31:40.049Z,14.72
2018-12-07T03:32:15.889Z,14.08
2018-12-07T03:32:51.597Z,14.31
2018-12-07T03:33:27.453Z,14.68
2018-12-07T03:34:03.093Z,14.69
2018-12-07T03:34:39.040Z,14.90
2018-12-07T03:35:14.777Z,14.94
2018-12-07T03:35:50.746Z,14.09
2018-12-07T03:36:26.480Z,14.10
2018-12-07T03:37:02.501Z,13.93
2018-12-07T03:37:38.102Z,14.18
2018-12-07T03:38:14.126Z,14.46
2018-12-07T03:38:49.896Z,13.98
2018-12-07T03:39:25.619Z,14.57
2018-12-07T03:40:01.339Z,14.00
2018-12-07T03:40:36.955Z,14.46
2018-12-07T03:41:12.547Z,14.57
2018-12-07T03:41:48.537Z,14.82
2018-12-07T03:42:24.258Z,14.23
2018-12-07T03:42:59.938Z,14.85
2018-12-07T03:43:35.697Z,14.33
2018-12-07T03:44:11.443Z,14.85
2018-12-07T03:44:47.318Z,14.18
2018-12-07T03:45:23.350Z,14.57
2018-12-07T03:45:59.488Z,14.57
2018-12-07T03:46:35.306Z,14.84
2018-12-07T03:47:11.196Z,14.74
2018-12-07T03:47:47.059Z,14.87
2018-12-07T03:48:22.568Z,14.68
2018-12-07T03:48:58.630Z,14.93
2018-12-07T03:49:34.346Z,14.80
2018-12-07T03:50:10.082Z,14.39
2018-12-07T03:50:46.001Z,14.27
2018-12-07T03:51:21.933Z,14.59
2018-12-07T03:51:57.483Z,13.94
2018-12-07T03:52:33.211Z,14.53
2018-12-07T03:53:08.755Z,14.36
2018-12-07T03:53:44.623Z,14.41
2018-12-07T03:54:20.277Z,14.44
2018-12-07T03:54:55.855Z,14.51
2018-12-07T03:55:31.486Z,14.46
2018-12-07T03:56:07.161Z,14.73
2018-12-07T03:56:42.858Z,14.36
2018-12-07T03:57:18.581Z,14.06
2018-12-07T03:57:54.328Z,14.42
2018-12-07T03:58:30.097Z,13.96
2018-12-07T03:59:06.014Z,14.50
2018-12-07T03:59:41.716Z,14.53
2018-12-07T04:00:17.459Z,14.07
2018-12-07T04:00:53.332Z,14.42
2018-12-07T04:01:28.901Z,14.33
2018-12-07T04:02:04.729Z,14.10
2018-12-07T04:02:40.432Z,14.24
2018-12-07T04:03:16.472Z,14.71
2018-12-07T04:03:52.512Z,14.45
2018-12-07T04:04:28.311Z,14.09
2018-12-07T04:05:04.256Z,14.60
2018-12-07T04:05:40.129Z,14.74
2018-12-07T04:06:15.825Z,13.89
2018-12-07T04:06:51.433Z,14.37
2018-12-07T04:07:27.649Z,14.43
2018-12-07T04:08:03.711Z,14.38
2018-12-07T04:08:39.498Z,14.22
2018-12-07T04:09:15.230Z,14.37
2018-12-07T04:09:50.971Z,14.82
2018-12-07T04:10:26.680Z,14.32
2018-12-07T04:11:02.487Z,14.59
2018-12-07T04:11:38.180Z,14.85
2018-12-07T04:12:13.969Z,14.63
2018-12-07T04:12:49.719Z,14.19
2018-12-07T04:13:25.333Z,14.00
2018-12-07T04:14:00.924Z,14.81
2018-12-07T04:14:36.956Z,13.96
2018-12-07T04:15:12.812Z,14.79
2018-12-07T04:15:48.720Z,14.21
2018-12-07T04:16:24.315Z,14.67
2018-12-07T04:16:59.928Z,14.41
2018-12-07T04:17:35.618Z,14.58
2018-12-07T04:18:11.160Z,14.41
2018-12-07T04:18:47.170Z,14.61
2018-12-07T04:19:22.985Z,14.15
2018-12-07T04:19:58.668Z,14.55
2018-12-07T04:20:34.406Z,14.36
2018-12-07T04:21:09.893Z,14.66
2018-12-07T04:21:45.650Z,14.11
2018-12-07T04:22:21.503Z,14.62
2018-12-07T04:22:57.329Z,14.51
2018-12-07T04:23:32.929Z,13.93
2018-12-07T04:24:08.488Z,14.63
2018-12-07T04:24:44.333Z,14.14
2018-12-07T04:25:20.099Z,14.38
2018-12-07T04:25:55.897Z,14.13
2018-12-07T04:26:31.676Z,14.39
2018-12-07T04:27:07.800Z,14.68
2018-12-07T04:27:43.337Z,14.37
2018-12-07T04:28:19.061Z,14.33
2018-12-07T04:28:54.713Z,14.55
2018-12-07T04:29:30.289Z,14.70
2018-12-07T04:30:15.854Z,14.44
2018-12-07T04:30:51.929Z,14.72
2018-12-07T04:31:27.760Z,14.02
2018-12-07T04:32:03.538Z,14.89
2018-12-07T04:32:39.396Z,14.64
2018-12-07T04:33:15.460Z,14.10
2018-12-07T04:33:51.087Z,14.73
2018-12-07T04:34:27.259Z,14.00
2018-12-07T04:35:02.927Z,14.06
2018-12-07T04:35:38.521Z,14.56
2018-12-07T04:36:14.296Z,14.11
2018-12-07T04:36:50.208Z,14.52
2018-12-07T04:37:26.561Z,14.66
2018-12-07T04:38:02.552Z,14.44
2018-12-07T04:38:38.169Z,14.06
2018-12-07T04:39:14.119Z,14.56
2018-12-07T04:39:50.014Z,14.61
2018-12-07T04:40:26.059Z,14.66
2018-12-07T04:41:01.987Z,14.00
2018-12-07T04:41:38.049Z,14.71
2018-12-07T04:42:14.110Z,14.44
2018-12-07T04:42:49.759Z,14.12
2018-12-07T04:43:25.556Z,14.48
2018-12-07T04:44:01.489Z,14.97
2018-12-07T04:44:37.377Z,14.38
2018-12-07T04:45:13.374Z,14.49
2018-12-07T04:45:49.467Z,15.06
2018-12-07T04:46:25.152Z,14.78
2018-12-07T04:47:00.725Z,14.40
2018-12-07T04:47:36.285Z,14.50
2018-12-07T04:48:12.365Z,15.08
2018-12-07T04:48:47.928Z,14.84
2018-12-07T04:49:23.635Z,14.34
2018-12-07T04:49:59.551Z,14.33
2018-12-07T04:50:35.182Z,14.34
2018-12-07T04:51:11.311Z,14.15
2018-12-07T04:51:47.084Z,14.42
2018-12-07T04:52:22.651Z,14.34
2018-12-07T04:52:58.276Z,14.28
2018-12-07T04:53:34.132Z,14.75
2018-12-07T04:54:09.806Z,14.76
2018-12-07T04:54:45.625Z,15.20
2018-12-07T04:55:21.271Z,14.88
2018-12-07T04:55:56.896Z,14.47
2018-12-07T04:56:33.733Z,14.62
2018-12-07T04:57:09.819Z,13.92
2018-12-07T04:57:45.566Z,14.07
2018-12-07T04:58:21.299Z,14.16
2018-12-07T04:58:56.872Z,14.33
2018-12-07T04:59:32.405Z,14.51
2018-12-07T05:00:08.999Z,14.69
2018-12-07T05:00:45.124Z,14.42
2018-12-07T05:01:20.724Z,14.77
2018-12-07T05:01:56.329Z,14.42
2018-12-07T05:02:32.215Z,14.52
2018-12-07T05:03:08.012Z,14.63
2018-12-07T05:03:43.621Z,14.46
2018-12-07T05:04:19.386Z,14.44
2018-12-07T05:04:55.382Z,14.08
2018-12-07T05:05:31.245Z,14.38
2018-12-07T05:06:07.023Z,14.71
2018-12-07T05:06:42.717Z,14.48
2018-12-07T05:07:18.618Z,13.90
2018-12-07T05:07:54.416Z,14.43
2018-12-07T05:08:30.228Z,13.98
2018-12-07T05:09:08.150Z,14.01
2018-12-07T05:09:43.813Z,13.92
2018-12-07T05:10:19.518Z,14.11
2018-12-07T05:10:55.171Z,14.35
2018-12-07T05:11:31.331Z,14.23
2018-12-07T05:12:07.394Z,14.39
2018-12-07T05:12:43.367Z,14.25
2018-12-07T05:13:19.673Z,14.48
2018-12-07T05:13:55.383Z,14.12
2018-12-07T05:14:31.052Z,14.26
2018-12-07T05:15:07.661Z,14.24
2018-12-07T05:15:43.313Z,13.91
2018-12-07T05:16:19.202Z,14.49
2018-12-07T05:16:55.100Z,13.79
2018-12-07T05:17:30.825Z,14.15
2018-12-07T05:18:06.716Z,13.87
2018-12-07T05:18:42.693Z,13.94
2018-12-07T05:19:19.173Z,13.97
2018-12-07T05:19:54.833Z,14.10
2018-12-07T05:20:31.197Z,14.10
2018-12-07T05:21:06.954Z,14.01
2018-12-07T05:21:42.938Z,14.38
2018-12-07T05:22:18.619Z,14.30
2018-12-07T05:22:54.458Z,14.02
2018-12-07T05:23:30.113Z,13.90
2018-12-07T05:24:05.873Z,13.94
2018-12-07T05:24:41.802Z,13.69
2018-12-07T05:25:17.598Z,13.86
2018-12-07T05:25:53.094Z,14.06
2018-12-07T05:26:28.724Z,13.87
2018-12-07T05:27:04.685Z,13.64
2018-12-07T05:27:40.593Z,13.84
2018-12-07T05:28:16.455Z,14.29
2018-12-07T05:28:52.266Z,13.92
2018-12-07T05:29:28.907Z,13.98
2018-12-07T05:30:04.595Z,13.91
2018-12-07T05:30:40.317Z,14.21
2018-12-07T05:31:16.095Z,14.07
2018-12-07T05:31:51.780Z,14.25
2018-12-07T05:32:27.445Z,14.38
2018-12-07T05:33:03.241Z,13.86
2018-12-07T05:33:39.149Z,14.64
2018-12-07T05:34:14.727Z,14.09
2018-12-07T05:34:50.493Z,14.51
2018-12-07T05:35:26.373Z,14.12
2018-12-07T05:36:01.981Z,14.49
2018-12-07T05:36:37.691Z,13.97
2018-12-07T05:37:13.294Z,14.50
2018-12-07T05:37:48.871Z,14.24
2018-12-07T05:38:24.608Z,14.38
2018-12-07T05:39:00.223Z,14.13
2018-12-07T05:39:35.899Z,14.17
2018-12-07T05:40:11.462Z,14.54
2018-12-07T05:40:47.240Z,14.40
2018-12-07T05:41:23.167Z,14.06
2018-12-07T05:41:58.835Z,14.58
2018-12-07T05:42:34.493Z,14.22
2018-12-07T05:43:10.612Z,13.97
2018-12-07T05:43:57.840Z,14.15
2018-12-07T05:44:33.476Z,14.08
2018-12-07T05:45:09.268Z,14.73
2018-12-07T05:45:44.900Z,14.91
2018-12-07T05:46:20.708Z,14.42
2018-12-07T05:46:56.527Z,14.14
2018-12-07T05:47:32.400Z,14.41
2018-12-07T05:48:08.257Z,14.78
2018-12-07T05:48:44.229Z,14.84
2018-12-07T05:49:20.001Z,14.64
2018-12-07T05:49:55.739Z,14.75
2018-12-07T05:50:31.456Z,15.00
2018-12-07T05:51:07.050Z,14.68
2018-12-07T05:51:42.866Z,14.66
2018-12-07T05:52:18.529Z,14.46
2018-12-07T05:52:54.162Z,14.74
2018-12-07T05:53:29.720Z,14.60
2018-12-07T05:54:05.520Z,14.46
2018-12-07T05:54:41.277Z,14.36
2018-12-07T05:55:16.930Z,14.84
2018-12-07T05:55:52.500Z,14.60
2018-12-07T05:56:28.229Z,14.40
2018-12-07T05:57:04.062Z,14.74
2018-12-07T05:57:39.837Z,14.38
2018-12-07T05:58:15.601Z,14.80
2018-12-07T05:58:51.329Z,14.48
2018-12-07T05:59:27.025Z,14.76
2018-12-07T06:00:02.517Z,14.76
2018-12-07T06:00:38.020Z,14.50
2018-12-07T06:01:13.653Z,14.38
2018-12-07T06:01:49.416Z,14.71
2018-12-07T06:02:25.178Z,14.25
2018-12-07T06:03:00.841Z,14.82
2018-12-07T06:03:36.330Z,14.68
2018-12-07T06:04:11.873Z,14.68
2018-12-07T06:04:47.411Z,14.27
2018-12-07T06:05:22.855Z,14.30
2018-12-07T06:05:58.525Z,14.91
2018-12-07T06:06:34.778Z,14.92
2018-12-07T06:07:10.533Z,14.73
2018-12-07T06:07:46.303Z,14.22
2018-12-07T06:08:22.067Z,14.30
2018-12-07T06:08:57.908Z,14.53
2018-12-07T06:09:33.582Z,14.17
2018-12-07T06:10:09.102Z,14.82
2018-12-07T06:10:44.828Z,14.47
2018-12-07T06:11:20.532Z,14.42
2018-12-07T06:11:56.201Z,14.95
2018-12-07T06:12:31.778Z,14.99
2018-12-07T06:13:07.336Z,14.70
2018-12-07T06:13:43.006Z,14.65
2018-12-07T06:14:18.719Z,15.16
2018-12-07T06:14:54.663Z,14.88
2018-12-07T06:15:30.384Z,14.80
2018-12-07T06:16:05.951Z,14.82
2018-12-07T06:16:41.700Z,15.10
2018-12-07T06:17:17.430Z,14.97
2018-12-07T06:17:53.153Z,15.19
2018-12-07T06:18:29.108Z,15.17
2018-12-07T06:19:04.826Z,14.81
2018-12-07T06:19:40.503Z,15.32
2018-12-07T06:20:16.308Z,15.24
2018-12-07T06:20:52.120Z,14.72
2018-12-07T06:21:28.098Z,14.95
2018-12-07T06:22:03.943Z,15.26
2018-12-07T06:22:39.650Z,14.84
2018-12-07T06:23:15.188Z,14.81
2018-12-07T06:23:51.266Z,14.80
2018-12-07T06:24:27.064Z,14.97
2018-12-07T06:25:02.712Z,15.14
2018-12-07T06:25:38.445Z,14.62
2018-12-07T06:26:14.037Z,15.05
2018-12-07T06:26:49.910Z,14.88
2018-12-07T06:27:25.557Z,15.00
2018-12-07T06:28:01.165Z,14.72
2018-12-07T06:28:36.992Z,15.05
2018-12-07T06:29:12.682Z,15.30
2018-12-07T06:29:48.307Z,14.77
2018-12-07T06:30:24.076Z,15.24
2018-12-07T06:30:59.898Z,14.87
2018-12-07T06:31:35.650Z,14.96
2018-12-07T06:32:11.338Z,15.13
2018-12-07T06:32:47.034Z,15.03
2018-12-07T06:33:22.617Z,15.21
2018-12-07T06:33:58.422Z,15.19
2018-12-07T06:34:34.181Z,15.22
2018-12-07T06:35:09.842Z,15.22
2018-12-07T06:35:45.348Z,14.67
2018-12-07T06:36:21.023Z,14.83
2018-12-07T06:36:56.790Z,14.97
2018-12-07T06:37:32.378Z,15.02
2018-12-07T06:38:08.091Z,15.13
2018-12-07T06:38:43.981Z,14.80
2018-12-07T06:39:19.667Z,14.85
2018-12-07T06:39:55.198Z,14.72
2018-12-07T06:40:31.099Z,15.03
2018-12-07T06:41:06.894Z,15.06
2018-12-07T06:41:42.681Z,15.27
2018-12-07T06:42:18.320Z,15.02
2018-12-07T06:42:54.259Z,14.52
2018-12-07T06:43:29.852Z,14.82
2018-12-07T06:44:05.550Z,14.96
2018-12-07T06:44:41.296Z,14.91
2018-12-07T06:45:17.086Z,15.16
2018-12-07T06:45:52.761Z,14.80
2018-12-07T06:46:28.734Z,15.26
2018-12-07T06:47:04.355Z,15.28
2018-12-07T06:47:39.999Z,15.18
2018-12-07T06:48:15.800Z,14.80
2018-12-07T06:49:01.620Z,14.81
2018-12-07T06:49:37.352Z,15.00
2018-12-07T06:50:13.329Z,15.18
2018-12-07T06:50:49.066Z,14.75
2018-12-07T06:51:24.880Z,15.27
2018-12-07T06:52:00.369Z,15.37
2018-12-07T06:52:36.135Z,15.20
2018-12-07T06:53:11.743Z,14.81
2018-12-07T06:53:47.323Z,14.88
2018-12-07T06:54:23.217Z,15.07
2018-12-07T06:54:59.137Z,15.27
2018-12-07T06:55:34.927Z,15.05
2018-12-07T06:56:10.612Z,15.04
2018-12-07T06:56:46.613Z,15.18
2018-12-07T06:57:22.194Z,15.15
2018-12-07T06:57:59.682Z,15.28
2018-12-07T06:58:35.336Z,15.35
2018-12-07T06:59:10.662Z,15.52
2018-12-07T06:59:46.194Z,15.24
2018-12-07T07:00:21.899Z,15.29
2018-12-07T07:00:57.702Z,14.66
2018-12-07T07:01:33.789Z,14.76
2018-12-07T07:02:09.570Z,15.13
2018-12-07T07:02:45.469Z,14.65
2018-12-07T07:03:21.212Z,15.06
2018-12-07T07:03:56.726Z,14.73
2018-12-07T07:04:32.494Z,14.69
2018-12-07T07:05:08.918Z,14.85
2018-12-07T07:05:44.563Z,15.16
2018-12-07T07:06:20.435Z,14.74
2018-12-07T07:06:56.191Z,14.74
2018-12-07T07:07:32.026Z,15.10
2018-12-07T07:08:07.767Z,14.85
2018-12-07T07:08:43.472Z,15.14
2018-12-07T07:09:19.450Z,14.87
2018-12-07T07:09:54.957Z,14.81
2018-12-07T07:10:30.733Z,15.33
2018-12-07T07:11:06.356Z,14.65
2018-12-07T07:11:42.060Z,14.80
2018-12-07T07:12:17.896Z,14.74
2018-12-07T07:12:53.693Z,14.84
2018-12-07T07:13:29.261Z,15.11
2018-12-07T07:14:05.178Z,14.73
2018-12-07T07:14:40.783Z,14.82
2018-12-07T07:15:16.387Z,15.10
2018-12-07T07:15:52.344Z,14.46
2018-12-07T07:16:27.992Z,14.54
2018-12-07T07:17:03.811Z,14.88
2018-12-07T07:17:39.520Z,14.72
2018-12-07T07:18:15.403Z,15.19
2018-12-07T07:18:51.000Z,14.83
2018-12-07T07:19:26.687Z,15.13
2018-12-07T07:20:02.546Z,14.78
2018-12-07T07:20:38.959Z,14.79
2018-12-07T07:21:14.744Z,15.19
2018-12-07T07:21:50.553Z,15.38
2018-12-07T07:22:26.383Z,15.33
2018-12-07T07:23:02.056Z,15.25
2018-12-07T07:23:38.512Z,14.82
2018-12-07T07:24:14.084Z,14.97
2018-12-07T07:24:49.920Z,14.48
2018-12-07T07:25:25.470Z,14.94
2018-12-07T07:26:01.096Z,15.15
2018-12-07T07:26:36.752Z,14.62
2018-12-07T07:27:12.362Z,14.94
2018-12-07T07:27:48.123Z,14.82
2018-12-07T07:28:23.993Z,15.12
2018-12-07T07:28:59.645Z,14.93
2018-12-07T07:29:35.125Z,15.09
2018-12-07T07:30:11.278Z,14.82
2018-12-07T07:30:46.912Z,15.10
2018-12-07T07:31:22.569Z,15.00
2018-12-07T07:31:58.352Z,14.75
2018-12-07T07:32:34.341Z,15.04
2018-12-07T07:33:09.886Z,15.07
2018-12-07T07:33:45.728Z,15.06
2018-12-07T07:34:21.646Z,14.53
2018-12-07T07:34:57.511Z,15.03
2018-12-07T07:35:33.375Z,15.04
2018-12-07T07:36:09.118Z,14.95
2018-12-07T07:36:44.740Z,14.57
2018-12-07T07:37:20.336Z,14.60
2018-12-07T07:37:56.267Z,14.70
2018-12-07T07:38:32.134Z,14.71
2018-12-07T07:39:08.854Z,15.29
2018-12-07T07:40:19.032Z,15.17
2018-12-07T07:40:54.667Z,15.12
2018-12-07T07:41:30.487Z,14.85
2018-12-07T07:42:06.166Z,14.89
2018-12-07T07:42:41.938Z,14.60